Time;durP1;ratioP1;P1;durP2;ratioP2;P2;SDS_P1;SDS_P2;PMS_P1;PMS_P2;Temp;Humidity;BMP_temperature;BMP_pressure;BME280_temperature;BME280_humidity;BME280_pressure;Samples;Min_cycle;Max_cycle;Signal;HPM_P1;HPM_P2
2022/05/22 00:02:05;;;;;;;11.82;7.07;;;15.10;98.80;;;;;;5013251;28;20040;-53
2022/05/22 00:04:30;;;;;;;11.07;6.72;;;15.10;98.80;;;;;;5013963;28;20066;-49
2022/05/22 00:06:56;;;;;;;10.95;6.97;;;14.90;99.10;;;;;;5012923;28;20503;-51
2022/05/22 00:09:22;;;;;;;9.95;7.18;;;15.00;99.10;;;;;;5012924;28;20042;-54
2022/05/22 00:11:50;;;;;;;12.43;6.60;;;15.10;98.80;;;;;;5012943;28;20037;-57
2022/05/22 00:14:17;;;;;;;9.45;6.50;;;15.20;98.60;;;;;;5013467;28;20038;-58
2022/05/22 00:16:46;;;;;;;10.30;6.53;;;15.10;98.70;;;;;;5012646;28;20393;-52
2022/05/22 00:19:23;;;;;;;11.38;6.85;;;15.20;98.60;;;;;;5013523;28;20056;-54
2022/05/22 00:21:50;;;;;;;10.15;6.97;;;15.30;98.30;;;;;;5014035;28;20032;-53
2022/05/22 00:24:19;;;;;;;12.65;7.18;;;15.30;98.60;;;;;;5014378;28;20026;-57
2022/05/22 00:26:45;;;;;;;12.57;7.30;;;15.30;98.90;;;;;;5012704;28;20030;-58
2022/05/22 00:29:11;;;;;;;10.95;7.43;;;15.20;98.60;;;;;;5013945;28;20053;-57
2022/05/22 00:31:36;;;;;;;10.88;7.30;;;15.20;98.50;;;;;;5012816;28;20393;-58
2022/05/22 00:34:03;;;;;;;10.95;6.75;;;15.20;98.80;;;;;;5013088;28;20026;-56
2022/05/22 00:36:28;;;;;;;12.65;7.00;;;15.10;98.90;;;;;;5012871;28;20033;-52
2022/05/22 00:38:56;;;;;;;11.55;6.93;;;15.10;99.20;;;;;;5013201;28;20397;-52
2022/05/22 00:41:22;;;;;;;10.40;7.22;;;15.10;99.30;;;;;;5013539;28;20035;-51
2022/05/22 00:43:51;;;;;;;12.75;7.25;;;15.20;99.30;;;;;;4998541;28;20041;-53
2022/05/22 00:46:19;;;;;;;12.38;7.05;;;15.20;99.40;;;;;;5012385;28;20044;-52
2022/05/22 00:49:00;;;;;;;11.57;8.15;;;15.30;99.10;;;;;;5013639;28;20053;-57
2022/05/22 00:51:40;;;;;;;11.68;7.90;;;15.20;99.30;;;;;;5012582;28;20384;-54
2022/05/22 00:54:22;;;;;;;11.23;7.45;;;15.20;99.30;;;;;;5013620;28;20529;-51
2022/05/22 00:56:54;;;;;;;10.73;8.07;;;15.30;99.30;;;;;;5013250;28;20030;-52
2022/05/22 00:59:25;;;;;;;12.55;7.75;;;15.10;99.60;;;;;;5013011;28;20482;-58
2022/05/22 01:01:55;;;;;;;12.82;7.15;;;15.10;99.70;;;;;;5012593;28;20153;-54
2022/05/22 01:04:25;;;;;;;10.90;7.50;;;14.80;99.90;;;;;;5012332;28;20509;-52
2022/05/22 01:06:52;;;;;;;10.60;7.00;;;14.90;99.90;;;;;;5011361;28;20033;-53
2022/05/22 01:09:18;;;;;;;17.50;8.85;;;15.00;99.90;;;;;;5012827;28;20038;-54
2022/05/22 01:11:44;;;;;;;13.45;10.75;;;14.90;99.90;;;;;;5012434;28;20034;-53
2022/05/22 01:14:14;;;;;;;11.60;8.50;;;14.90;99.90;;;;;;5012739;28;20037;-51
2022/05/22 01:16:40;;;;;;;16.38;8.93;;;15.00;99.90;;;;;;5011547;28;20037;-53
2022/05/22 01:19:11;;;;;;;12.32;7.80;;;14.90;99.90;;;;;;5011854;28;20045;-55
2022/05/22 01:21:37;;;;;;;12.73;7.90;;;14.80;99.90;;;;;;5012244;28;20645;-54
2022/05/22 01:24:04;;;;;;;10.82;7.90;;;14.80;99.90;;;;;;5012715;28;20552;-57
2022/05/22 01:26:30;;;;;;;12.35;7.10;;;14.80;99.90;;;;;;5012023;28;20223;-53
2022/05/22 01:28:56;;;;;;;10.98;7.30;;;14.80;99.90;;;;;;5012888;28;20034;-51
2022/05/22 01:31:22;;;;;;;12.60;7.82;;;14.80;99.90;;;;;;4995059;28;20095;-54
2022/05/22 01:33:48;;;;;;;13.65;7.60;;;14.80;99.90;;;;;;4995347;28;20038;-55
2022/05/22 01:36:15;;;;;;;11.20;7.13;;;14.70;99.90;;;;;;4993913;28;20032;-56
2022/05/22 01:38:41;;;;;;;11.68;7.25;;;14.50;99.90;;;;;;5012606;28;20033;-52
2022/05/22 01:41:07;;;;;;;10.52;6.93;;;14.50;99.90;;;;;;5012695;28;20034;-50
2022/05/22 01:43:33;;;;;;;13.88;6.95;;;14.50;99.90;;;;;;5013620;28;20053;-49
2022/05/22 01:45:58;;;;;;;18.50;7.57;;;14.50;99.90;;;;;;5012481;28;20033;-55
2022/05/22 01:48:24;;;;;;;8.93;6.55;;;14.50;99.90;;;;;;5012564;28;20477;-53
2022/05/22 01:50:50;;;;;;;12.00;7.68;;;14.50;99.90;;;;;;5013028;28;20038;-55
2022/05/22 01:53:18;;;;;;;13.50;7.90;;;14.50;99.90;;;;;;5012413;28;20022;-53
2022/05/22 01:55:45;;;;;;;13.02;9.55;;;14.50;99.90;;;;;;5012540;28;20065;-57
2022/05/22 01:58:11;;;;;;;10.50;8.10;;;14.50;99.90;;;;;;5012220;28;20065;-55
2022/05/22 02:00:37;;;;;;;10.50;7.82;;;14.60;99.90;;;;;;5012728;28;20037;-53
2022/05/22 02:03:04;;;;;;;10.13;7.55;;;14.60;99.90;;;;;;5014685;28;20033;-50
2022/05/22 02:05:30;;;;;;;9.68;7.03;;;14.60;99.90;;;;;;5015092;28;20033;-54
2022/05/22 02:10:40;;;;;;;9.20;7.40;;;14.60;99.90;;;;;;5014905;28;20477;-48
2022/05/22 02:13:07;;;;;;;10.65;6.63;;;14.60;99.90;;;;;;5015613;28;20041;-52
2022/05/22 02:15:33;;;;;;;12.32;6.30;;;14.50;99.90;;;;;;5015043;28;20042;-57
2022/05/22 02:17:58;;;;;;;13.38;7.28;;;14.50;99.90;;;;;;5015389;28;20036;-50
2022/05/22 02:20:24;;;;;;;11.77;6.50;;;14.40;99.90;;;;;;5014524;28;20030;-55
2022/05/22 02:22:54;;;;;;;11.82;7.43;;;14.30;99.90;;;;;;5015749;28;20049;-53
2022/05/22 02:25:30;;;;;;;9.82;6.78;;;14.40;99.90;;;;;;5015499;28;20408;-48
2022/05/22 02:27:57;;;;;;;9.90;7.80;;;14.30;99.90;;;;;;5015339;28;20168;-53
2022/05/22 02:30:27;;;;;;;9.32;6.82;;;14.30;99.90;;;;;;5015377;28;20084;-48
2022/05/22 02:32:52;;;;;;;11.43;6.10;;;14.20;99.90;;;;;;5015252;28;20497;-51
2022/05/22 02:35:18;;;;;;;8.27;5.80;;;14.30;99.90;;;;;;5015183;28;20032;-52
2022/05/22 02:37:50;;;;;;;9.75;6.20;;;14.20;99.90;;;;;;5015645;28;20032;-50
2022/05/22 02:40:18;;;;;;;10.95;6.30;;;14.20;99.90;;;;;;5016125;28;20030;-56
2022/05/22 02:42:48;;;;;;;9.48;6.35;;;14.20;99.90;;;;;;5015525;28;20025;-57
2022/05/22 02:45:16;;;;;;;12.15;7.22;;;14.30;99.90;;;;;;5015821;28;20022;-57
2022/05/22 02:47:42;;;;;;;9.70;7.10;;;14.00;99.90;;;;;;5015268;28;20505;-59
2022/05/22 02:50:09;;;;;;;13.98;7.43;;;13.90;99.90;;;;;;5015612;28;20034;-51
2022/05/22 02:52:35;;;;;;;11.32;7.55;;;13.90;99.90;;;;;;5015473;28;20061;-52
2022/05/22 02:55:01;;;;;;;9.48;7.20;;;13.90;99.90;;;;;;5015296;28;20061;-53
2022/05/22 02:57:26;;;;;;;13.95;7.03;;;14.00;99.90;;;;;;4997914;28;20397;-51
2022/05/22 02:59:54;;;;;;;11.02;7.10;;;14.10;99.90;;;;;;5016813;28;20483;-54
2022/05/22 03:02:20;;;;;;;12.27;7.47;;;14.10;99.90;;;;;;5016317;28;20030;-49
2022/05/22 03:04:47;;;;;;;12.30;7.47;;;14.20;99.90;;;;;;4997668;28;20052;-50
2022/05/22 03:07:14;;;;;;;7.90;6.40;;;14.20;99.90;;;;;;5013929;28;20038;-53
2022/05/22 03:09:41;;;;;;;11.23;6.57;;;14.30;99.90;;;;;;5014271;28;20033;-47
2022/05/22 03:12:13;;;;;;;8.27;6.70;;;14.30;99.90;;;;;;5014487;28;20137;-56
2022/05/22 03:14:47;;;;;;;8.80;6.47;;;14.40;99.90;;;;;;5015027;28;20036;-54
2022/05/22 03:17:13;;;;;;;9.60;5.93;;;14.40;99.90;;;;;;4996871;28;20208;-54
2022/05/22 03:19:40;;;;;;;8.73;5.88;;;14.20;99.90;;;;;;5014433;28;20033;-53
2022/05/22 03:22:07;;;;;;;11.40;6.43;;;14.30;99.90;;;;;;5014887;28;20034;-55
2022/05/22 03:24:33;;;;;;;8.65;6.45;;;14.20;99.90;;;;;;5014204;28;20029;-57
2022/05/22 03:27:06;;;;;;;8.88;6.45;;;14.00;99.90;;;;;;5013246;28;20539;-55
2022/05/22 03:29:31;;;;;;;11.25;6.30;;;13.90;99.90;;;;;;5014499;28;20033;-51
2022/05/22 03:31:57;;;;;;;6.40;5.80;;;13.80;99.90;;;;;;5014345;28;20569;-55
2022/05/22 03:34:23;;;;;;;11.90;6.35;;;13.90;99.90;;;;;;5014032;28;20030;-56
2022/05/22 03:36:49;;;;;;;9.57;6.50;;;13.90;99.90;;;;;;5011955;28;20033;-52
2022/05/22 03:39:15;;;;;;;11.15;7.07;;;13.90;99.90;;;;;;5014593;28;20038;-49
2022/05/22 03:41:41;;;;;;;11.13;7.10;;;13.90;99.90;;;;;;5014746;28;20034;-50
2022/05/22 03:44:07;;;;;;;8.82;6.80;;;13.80;99.90;;;;;;5014130;28;20026;-50
2022/05/22 03:46:33;;;;;;;10.90;6.95;;;13.70;99.90;;;;;;5013431;28;20030;-48
2022/05/22 03:48:59;;;;;;;8.98;6.20;;;13.80;99.90;;;;;;5014232;28;20033;-51
2022/05/22 03:51:25;;;;;;;12.15;7.07;;;13.80;99.90;;;;;;5014380;28;20053;-53
2022/05/22 03:53:51;;;;;;;9.45;6.88;;;13.60;99.90;;;;;;5014142;28;20061;-51
2022/05/22 03:56:18;;;;;;;11.80;6.72;;;13.60;99.90;;;;;;5012462;28;20064;-52
2022/05/22 03:58:44;;;;;;;10.05;6.90;;;13.70;99.90;;;;;;5014334;28;20256;-56
2022/05/22 04:01:10;;;;;;;9.85;6.70;;;13.70;99.90;;;;;;5013568;28;20033;-54
2022/05/22 04:03:37;;;;;;;11.38;6.93;;;13.80;99.90;;;;;;5013738;28;20440;-55
2022/05/22 04:06:04;;;;;;;13.93;7.07;;;13.80;99.90;;;;;;5012671;28;20030;-51
2022/05/22 04:08:30;;;;;;;12.45;7.38;;;13.60;99.90;;;;;;5013232;28;20033;-51
2022/05/22 04:10:57;;;;;;;9.65;6.20;;;13.50;99.90;;;;;;5013137;28;20132;-55
2022/05/22 04:13:24;;;;;;;16.98;6.20;;;13.60;99.90;;;;;;5013464;28;20021;-48
2022/05/22 04:15:49;;;;;;;12.00;6.40;;;13.70;99.90;;;;;;5012523;28;20026;-54
2022/05/22 04:18:15;;;;;;;8.57;6.13;;;13.80;99.90;;;;;;5013404;28;20037;-53
2022/05/22 04:20:41;;;;;;;10.23;6.60;;;14.00;99.90;;;;;;5013148;28;20057;-53
2022/05/22 04:25:56;;;;;;;10.50;6.63;;;14.10;99.90;;;;;;5012536;28;20038;-55
2022/05/22 04:28:23;;;;;;;12.55;7.20;;;14.10;99.90;;;;;;5014175;28;20030;-54
2022/05/22 04:30:49;;;;;;;13.95;6.60;;;14.20;99.90;;;;;;5012797;28;20638;-52
2022/05/22 04:33:15;;;;;;;9.55;6.35;;;14.20;99.90;;;;;;5013834;28;20060;-52
2022/05/22 04:35:40;;;;;;;7.88;5.97;;;14.20;99.90;;;;;;5012224;28;20018;-54
2022/05/22 04:38:06;;;;;;;8.35;5.75;;;14.20;99.90;;;;;;5013492;28;20075;-50
2022/05/22 04:40:31;;;;;;;10.60;6.32;;;14.20;99.90;;;;;;5012796;28;20057;-52
2022/05/22 04:42:57;;;;;;;9.80;6.65;;;14.20;99.90;;;;;;5005401;28;20192;-53
2022/05/22 04:45:22;;;;;;;13.07;6.57;;;14.20;99.90;;;;;;5013095;28;20034;-52
2022/05/22 04:47:48;;;;;;;7.15;5.68;;;14.20;99.90;;;;;;4995159;28;20026;-52
2022/05/22 04:50:14;;;;;;;9.75;6.68;;;14.20;99.90;;;;;;5012808;28;20029;-49
2022/05/22 04:52:40;;;;;;;11.32;6.35;;;14.30;99.90;;;;;;5012964;28;20034;-54
2022/05/22 04:55:07;;;;;;;8.93;5.90;;;14.30;99.90;;;;;;5013076;28;20037;-51
2022/05/22 04:57:33;;;;;;;9.07;6.45;;;14.30;99.90;;;;;;5012712;28;20030;-54
2022/05/22 04:59:59;;;;;;;11.32;6.15;;;14.30;99.90;;;;;;5012744;28;20021;-52
2022/05/22 05:02:25;;;;;;;9.73;5.80;;;14.40;99.90;;;;;;5013207;28;20273;-56
2022/05/22 05:04:56;;;;;;;9.20;6.18;;;14.40;99.90;;;;;;5013264;28;20061;-54
2022/05/22 05:07:22;;;;;;;8.40;5.10;;;14.50;99.90;;;;;;5013022;28;20033;-52
2022/05/22 05:09:49;;;;;;;10.63;4.85;;;14.50;99.90;;;;;;5013599;28;20072;-55
2022/05/22 05:12:15;;;;;;;9.75;5.35;;;14.70;99.90;;;;;;4994817;28;20497;-49
2022/05/22 05:14:40;;;;;;;12.20;5.75;;;14.70;99.90;;;;;;5012627;28;20061;-50
2022/05/22 05:17:17;;;;;;;12.57;5.18;;;14.60;99.90;;;;;;5011488;28;20053;-52
2022/05/22 05:19:44;;;;;;;9.32;5.40;;;14.70;99.50;;;;;;5011923;28;20033;-51
2022/05/22 05:22:10;;;;;;;7.75;4.95;;;14.40;99.90;;;;;;5012068;28;20038;-56
2022/05/22 05:24:35;;;;;;;10.13;5.05;;;14.20;99.90;;;;;;5012811;28;20032;-53
2022/05/22 05:27:01;;;;;;;10.45;4.90;;;14.30;99.90;;;;;;5011903;28;20124;-56
2022/05/22 05:29:27;;;;;;;8.02;4.72;;;14.50;99.90;;;;;;5012677;28;20030;-54
2022/05/22 05:31:53;;;;;;;7.45;4.70;;;14.70;99.80;;;;;;5012957;28;20034;-54
2022/05/22 05:34:19;;;;;;;7.70;4.45;;;14.80;99.90;;;;;;4994932;28;20034;-56
2022/05/22 05:36:45;;;;;;;8.30;4.43;;;15.00;99.70;;;;;;5014598;28;20029;-52
2022/05/22 05:39:12;;;;;;;7.78;4.30;;;15.20;99.20;;;;;;5017608;28;20064;-56
2022/05/22 05:41:38;;;;;;;8.82;4.30;;;15.20;99.00;;;;;;5015762;28;20037;-52
2022/05/22 05:44:08;;;;;;;9.43;4.93;;;15.20;98.90;;;;;;5016986;28;20440;-51
2022/05/22 05:46:35;;;;;;;9.02;3.75;;;15.30;98.70;;;;;;5015608;28;20037;-54
2022/05/22 05:49:02;;;;;;;10.60;3.95;;;15.30;96.90;;;;;;5015707;28;20021;-50
2022/05/22 05:51:28;;;;;;;6.72;3.20;;;15.30;96.70;;;;;;5015696;28;20120;-51
2022/05/22 05:53:53;;;;;;;5.15;2.92;;;15.20;95.90;;;;;;5016099;28;20160;-54
2022/05/22 05:56:19;;;;;;;8.27;3.22;;;15.20;95.70;;;;;;5014820;28;20358;-49
2022/05/22 05:58:45;;;;;;;5.78;2.95;;;15.30;96.10;;;;;;5015901;28;20037;-56
2022/05/22 06:01:12;;;;;;;7.35;3.63;;;15.20;95.30;;;;;;5015988;28;20034;-52
2022/05/22 06:03:37;;;;;;;8.52;3.50;;;15.20;95.60;;;;;;5016217;28;20104;-54
2022/05/22 06:06:07;;;;;;;6.55;3.58;;;15.20;96.10;;;;;;5015142;28;20077;-55
2022/05/22 06:08:32;;;;;;;6.45;3.60;;;15.20;96.10;;;;;;5015694;28;20038;-50
2022/05/22 06:10:58;;;;;;;5.50;3.17;;;15.20;96.00;;;;;;5015642;28;20045;-49
2022/05/22 06:13:24;;;;;;;6.47;3.40;;;15.00;96.10;;;;;;4998223;28;20022;-50
2022/05/22 06:15:50;;;;;;;11.05;4.38;;;15.00;96.50;;;;;;4997613;28;20036;-56
2022/05/22 06:18:16;;;;;;;10.93;3.80;;;15.00;96.20;;;;;;5015972;28;20050;-53
2022/05/22 06:20:42;;;;;;;7.55;3.40;;;15.00;96.40;;;;;;5015138;28;20076;-54
2022/05/22 06:23:08;;;;;;;10.82;3.28;;;15.30;96.30;;;;;;5015504;28;20076;-55
2022/05/22 06:25:35;;;;;;;9.93;3.75;;;15.40;96.30;;;;;;5015459;28;20029;-53
2022/05/22 06:28:01;;;;;;;13.10;3.47;;;15.40;96.30;;;;;;5015944;28;20029;-51
2022/05/22 06:30:27;;;;;;;8.63;3.28;;;15.50;96.00;;;;;;5015628;28;20034;-50
2022/05/22 06:32:53;;;;;;;6.03;2.97;;;15.50;95.50;;;;;;5016069;28;20065;-53
2022/05/22 06:35:20;;;;;;;9.85;3.75;;;15.50;95.80;;;;;;4998355;28;20022;-52
2022/05/22 06:37:46;;;;;;;6.90;3.45;;;15.50;95.90;;;;;;5015499;28;20377;-52
2022/05/22 06:40:12;;;;;;;7.65;3.67;;;15.60;96.00;;;;;;5016325;28;20033;-50
2022/05/22 06:42:42;;;;;;;8.77;3.85;;;15.60;95.90;;;;;;5016462;28;20632;-51
2022/05/22 06:45:13;;;;;;;9.68;4.22;;;15.50;96.20;;;;;;5015630;28;20104;-54
2022/05/22 06:47:39;;;;;;;7.85;4.15;;;15.60;96.10;;;;;;4997210;28;20041;-56
2022/05/22 06:50:08;;;;;;;8.98;3.90;;;15.70;96.10;;;;;;5014700;28;20030;-52
2022/05/22 06:52:33;;;;;;;8.40;4.18;;;15.90;96.00;;;;;;5015085;28;20366;-51
2022/05/22 06:55:00;;;;;;;9.82;4.00;;;15.90;95.80;;;;;;5015837;28;20108;-51
2022/05/22 06:57:26;;;;;;;7.80;3.50;;;16.00;95.70;;;;;;4997687;28;20444;-49
2022/05/22 07:00:00;;;;;;;10.88;4.50;;;16.10;95.70;;;;;;5018677;28;20038;-58
2022/05/22 07:02:27;;;;;;;11.10;4.00;;;16.10;95.70;;;;;;4998409;28;20026;-59
2022/05/22 07:04:56;;;;;;;8.00;3.67;;;16.10;95.60;;;;;;4997806;28;20552;-60
2022/05/22 07:07:22;;;;;;;12.60;4.07;;;15.90;95.80;;;;;;4997146;28;20040;-59
2022/05/22 07:09:48;;;;;;;7.43;3.28;;;16.00;95.80;;;;;;5015025;28;20038;-57
2022/05/22 07:12:15;;;;;;;10.00;4.30;;;16.20;95.70;;;;;;5014797;28;20045;-58
2022/05/22 07:14:42;;;;;;;11.07;4.20;;;16.40;94.90;;;;;;5015154;28;20053;-57
2022/05/22 07:17:09;;;;;;;10.50;3.92;;;16.40;95.10;;;;;;5014979;28;20109;-58
2022/05/22 07:19:37;;;;;;;7.15;3.70;;;16.20;95.90;;;;;;5015123;28;20053;-59
2022/05/22 07:22:06;;;;;;;8.65;4.00;;;16.30;95.60;;;;;;5015235;28;20041;-60
2022/05/22 07:24:32;;;;;;;9.80;4.07;;;16.40;95.00;;;;;;5015507;28;20060;-58
2022/05/22 07:27:00;;;;;;;10.23;4.93;;;16.60;95.00;;;;;;5015685;28;20030;-59
2022/05/22 07:29:27;;;;;;;6.68;3.38;;;16.60;95.10;;;;;;5015489;28;20133;-57
2022/05/22 07:31:54;;;;;;;9.38;4.05;;;16.40;95.10;;;;;;5014398;28;20045;-58
2022/05/22 07:34:20;;;;;;;12.85;5.32;;;16.40;95.00;;;;;;5014095;28;20052;-57
2022/05/22 07:36:46;;;;;;;7.03;4.15;;;16.50;95.10;;;;;;5013366;28;20030;-57
2022/05/22 07:39:11;;;;;;;11.05;4.18;;;16.50;94.90;;;;;;5013819;28;20117;-57
2022/05/22 07:41:37;;;;;;;8.88;4.05;;;16.70;94.80;;;;;;5013944;28;20034;-59
2022/05/22 07:44:03;;;;;;;7.57;3.90;;;16.80;95.00;;;;;;5014487;28;20042;-57
2022/05/22 07:46:28;;;;;;;9.13;4.13;;;16.80;95.20;;;;;;5013691;28;20029;-56
2022/05/22 07:48:54;;;;;;;12.00;4.45;;;17.00;94.90;;;;;;4995788;28;20068;-58
2022/05/22 07:51:20;;;;;;;9.27;4.10;;;17.10;94.70;;;;;;5013844;28;20397;-60
2022/05/22 07:53:45;;;;;;;7.72;4.32;;;17.10;94.90;;;;;;5010216;28;20091;-60
2022/05/22 07:56:13;;;;;;;9.73;5.43;;;17.30;94.30;;;;;;5011252;28;20096;-58
2022/05/22 07:58:39;;;;;;;11.55;5.38;;;17.00;94.40;;;;;;5010251;28;20030;-58
2022/05/22 08:01:05;;;;;;;8.02;5.28;;;16.90;94.60;;;;;;5004725;28;20038;-59
2022/05/22 08:03:30;;;;;;;7.85;4.70;;;16.80;95.00;;;;;;5012796;28;20049;-55
2022/05/22 08:05:56;;;;;;;9.68;4.65;;;16.90;95.00;;;;;;4987028;28;20493;-58
2022/05/22 08:08:23;;;;;;;9.60;4.75;;;17.10;95.20;;;;;;5014168;28;20026;-59
2022/05/22 08:10:49;;;;;;;7.82;4.85;;;17.30;94.80;;;;;;4997395;28;20041;-59
2022/05/22 08:13:14;;;;;;;9.27;4.90;;;17.50;94.00;;;;;;5014518;28;20037;-57
2022/05/22 08:15:42;;;;;;;8.45;4.68;;;17.40;94.00;;;;;;5008760;28;20035;-58
2022/05/22 08:18:08;;;;;;;10.05;4.78;;;17.20;94.20;;;;;;5011134;28;20531;-57
2022/05/22 08:20:36;;;;;;;10.75;4.85;;;17.20;94.30;;;;;;5007044;28;20025;-55
2022/05/22 08:23:05;;;;;;;9.02;4.38;;;17.20;94.60;;;;;;5012756;28;20589;-58
2022/05/22 08:25:31;;;;;;;9.23;4.80;;;17.20;94.40;;;;;;5009626;28;20037;-58
2022/05/22 08:27:58;;;;;;;9.82;5.13;;;17.30;94.40;;;;;;5013264;28;20114;-59
2022/05/22 08:30:29;;;;;;;9.73;5.10;;;17.20;94.60;;;;;;5013147;28;20038;-59
2022/05/22 08:32:55;;;;;;;8.20;5.53;;;17.40;94.10;;;;;;5012317;28;20030;-56
2022/05/22 08:35:27;;;;;;;9.35;5.05;;;17.40;94.50;;;;;;5010516;28;20018;-58
2022/05/22 08:37:52;;;;;;;11.45;5.40;;;17.80;94.20;;;;;;5013079;28;20029;-58
2022/05/22 08:40:21;;;;;;;6.85;4.25;;;17.90;93.60;;;;;;5012885;28;20073;-56
2022/05/22 08:42:50;;;;;;;10.45;5.28;;;18.00;93.50;;;;;;5011464;28;20026;-59
2022/05/22 08:45:19;;;;;;;9.93;5.93;;;17.70;93.20;;;;;;5010330;28;20038;-59
2022/05/22 08:47:59;;;;;;;10.00;6.00;;;17.30;94.00;;;;;;5012203;28;20107;-54
2022/05/22 08:50:29;;;;;;;13.48;5.95;;;17.10;94.40;;;;;;5012730;28;20026;-59
2022/05/22 08:53:06;;;;;;;10.52;5.43;;;16.90;95.00;;;;;;5012320;28;20025;-57
2022/05/22 09:01:23;;;;;;;9.98;4.38;;;17.90;93.60;;;;;;5012867;28;20488;-59
2022/05/22 09:04:14;;;;;;;9.43;3.88;;;18.10;92.30;;;;;;5013383;28;20412;-58
2022/05/22 09:07:00;;;;;;;7.43;4.18;;;18.30;91.00;;;;;;5012345;28;20030;-56
2022/05/22 09:09:29;;;;;;;6.68;3.92;;;18.50;90.10;;;;;;5012473;28;20061;-56
2022/05/22 09:12:26;;;;;;;7.28;3.63;;;18.70;89.90;;;;;;5011628;28;20026;-58
2022/05/22 09:15:11;;;;;;;8.13;4.20;;;19.00;90.00;;;;;;4987769;28;20131;-57
2022/05/22 09:17:49;;;;;;;11.73;4.60;;;19.30;90.10;;;;;;5012539;28;20477;-56
2022/05/22 09:20:31;;;;;;;8.70;5.60;;;19.30;90.50;;;;;;5012558;28;20115;-53
2022/05/22 09:23:42;;;;;;;10.48;5.25;;;19.10;90.80;;;;;;5013390;28;20077;-58
2022/05/22 09:26:27;;;;;;;8.90;6.22;;;18.90;90.90;;;;;;5012167;28;20022;-60
2022/05/22 09:29:24;;;;;;;8.13;5.90;;;19.20;90.80;;;;;;5012475;28;20026;-58
2022/05/22 09:32:10;;;;;;;11.98;6.57;;;19.30;90.10;;;;;;5012988;28;20030;-59
2022/05/22 09:34:54;;;;;;;9.05;5.30;;;18.50;91.20;;;;;;5012131;28;20026;-59
2022/05/22 09:37:32;;;;;;;10.75;5.40;;;18.60;91.60;;;;;;5011368;28;20448;-58
2022/05/22 09:40:10;;;;;;;11.35;5.60;;;18.60;91.70;;;;;;5012462;28;20030;-59
2022/05/22 09:42:54;;;;;;;11.23;6.10;;;18.50;91.60;;;;;;5012031;28;20080;-58
2022/05/22 09:45:51;;;;;;;8.75;5.00;;;18.50;90.90;;;;;;5012396;28;20512;-58
2022/05/22 09:48:37;;;;;;;11.70;4.95;;;18.70;91.20;;;;;;5011786;28;20042;-59
2022/05/22 09:51:33;;;;;;;12.02;6.47;;;19.20;90.30;;;;;;5011924;28;20083;-59
2022/05/22 09:54:25;;;;;;;9.88;4.65;;;19.40;87.80;;;;;;5011713;28;20033;-57
2022/05/22 09:57:00;;;;;;;11.27;5.55;;;19.80;88.10;;;;;;5007952;28;20124;-57
2022/05/22 09:59:39;;;;;;;6.50;4.25;;;20.00;86.90;;;;;;5011769;28;20105;-55
2022/05/22 10:02:27;;;;;;;7.43;4.97;;;19.80;86.10;;;;;;5012416;28;20029;-56
2022/05/22 10:05:04;;;;;;;11.38;5.28;;;19.30;87.00;;;;;;5012439;28;20076;-56
2022/05/22 10:07:50;;;;;;;8.98;4.88;;;18.90;88.50;;;;;;5011174;28;20042;-57
2022/05/22 10:10:44;;;;;;;11.20;5.18;;;18.90;88.60;;;;;;5012032;28;20105;-57
2022/05/22 10:13:49;;;;;;;9.50;4.50;;;19.00;88.70;;;;;;5012312;28;20030;-60
2022/05/22 10:16:39;;;;;;;7.13;4.30;;;19.60;88.60;;;;;;5011570;28;20030;-59
2022/05/22 10:19:20;;;;;;;11.82;7.53;;;19.60;87.70;;;;;;5011213;28;20041;-56
2022/05/22 10:22:21;;;;;;;9.60;4.78;;;19.70;87.60;;;;;;5012481;28;20060;-58
2022/05/22 10:25:27;;;;;;;7.72;4.18;;;19.80;84.90;;;;;;5016380;28;20026;-54
2022/05/22 10:28:19;;;;;;;9.10;4.60;;;19.50;85.70;;;;;;5007723;28;20050;-58
2022/05/22 10:31:03;;;;;;;7.78;4.32;;;19.40;85.50;;;;;;5010991;28;20508;-58
2022/05/22 10:33:39;;;;;;;8.02;4.72;;;19.40;84.70;;;;;;5016457;28;20033;-55
2022/05/22 10:36:22;;;;;;;6.35;4.38;;;19.40;84.60;;;;;;5010109;28;20018;-58
2022/05/22 10:39:07;;;;;;;9.10;4.78;;;19.70;84.80;;;;;;5015503;28;20030;-58
2022/05/22 10:44:43;;;;;;;11.38;5.45;;;19.80;84.60;;;;;;4995706;28;20526;-58
2022/05/22 10:47:08;;;;;;;7.70;4.05;;;19.90;85.80;;;;;;4995900;28;20047;-58
2022/05/22 10:49:43;;;;;;;9.77;4.82;;;19.80;86.60;;;;;;4996229;28;20129;-57
2022/05/22 10:52:15;;;;;;;7.53;4.88;;;19.60;86.30;;;;;;4995331;28;20035;-59
2022/05/22 10:54:51;;;;;;;8.35;4.65;;;19.50;86.30;;;;;;4978354;28;20073;-59
2022/05/22 10:57:29;;;;;;;8.77;5.38;;;19.40;87.50;;;;;;4996243;28;20026;-59
2022/05/22 10:59:55;;;;;;;8.43;4.60;;;19.40;86.90;;;;;;4995010;28;20093;-60
2022/05/22 11:02:31;;;;;;;9.32;4.75;;;19.50;86.90;;;;;;4995320;28;20030;-58
2022/05/22 11:04:59;;;;;;;11.20;5.05;;;19.60;86.50;;;;;;4995345;28;20033;-59
2022/05/22 11:07:45;;;;;;;9.48;4.88;;;19.40;86.00;;;;;;4994821;28;20034;-59
2022/05/22 11:10:17;;;;;;;10.45;7.05;;;19.50;86.00;;;;;;4994874;28;20054;-59
2022/05/22 11:12:43;;;;;;;8.38;5.00;;;19.70;86.20;;;;;;4994589;28;20474;-60
2022/05/22 11:15:11;;;;;;;9.32;4.30;;;19.80;85.90;;;;;;4994533;28;20088;-60
2022/05/22 11:17:37;;;;;;;8.23;4.63;;;20.00;86.40;;;;;;4994662;28;20029;-58
2022/05/22 11:20:17;;;;;;;8.80;3.88;;;20.10;86.30;;;;;;4994993;28;20045;-56
2022/05/22 11:23:04;;;;;;;8.80;5.00;;;20.40;85.90;;;;;;4977128;28;20564;-57
2022/05/22 11:25:59;;;;;;;6.60;4.30;;;20.60;84.40;;;;;;4994682;28;20121;-57
2022/05/22 11:29:08;;;;;;;10.30;4.45;;;20.70;81.90;;;;;;4995359;28;20030;-57
2022/05/22 11:32:11;;;;;;;11.75;4.93;;;21.00;82.50;;;;;;4970970;28;20447;-59
2022/05/22 11:34:46;;;;;;;6.88;3.72;;;21.20;81.80;;;;;;4982632;28;20045;-56
2022/05/22 11:37:32;;;;;;;9.90;3.40;;;21.00;81.80;;;;;;5011805;28;20029;-57
2022/05/22 11:40:07;;;;;;;7.60;4.15;;;21.20;82.40;;;;;;5013880;28;20507;-55
2022/05/22 11:42:34;;;;;;;;;;;21.10;82.70;;;;;;5014109;28;20285;-59
2022/05/22 11:45:32;;;;;;;8.60;4.03;;;21.00;82.30;;;;;;5014577;28;19916;-59
2022/05/22 11:48:22;;;;;;;7.47;3.85;;;20.90;80.70;;;;;;4980676;28;20068;-59
2022/05/22 11:51:25;;;;;;;5.78;3.50;;;21.00;78.40;;;;;;5014284;28;20040;-56
2022/05/22 11:54:09;;;;;;;9.85;3.85;;;21.20;77.40;;;;;;5014141;28;20033;-57
2022/05/22 11:56:38;;;;;;;6.35;3.78;;;20.80;78.20;;;;;;5011903;28;20044;-58
2022/05/22 11:59:27;;;;;;;6.50;3.70;;;20.70;76.80;;;;;;5013067;28;20032;-55
2022/05/22 12:02:04;;;;;;;5.82;3.55;;;21.20;77.70;;;;;;5010649;28;20077;-54
2022/05/22 12:04:47;;;;;;;9.23;4.07;;;21.40;77.30;;;;;;5011996;28;20028;-59
2022/05/22 12:07:15;;;;;;;5.35;3.53;;;21.40;77.60;;;;;;5013461;28;20034;-59
2022/05/22 12:09:52;;;;;;;8.63;3.85;;;21.50;78.70;;;;;;5014035;28;20473;-60
2022/05/22 12:12:59;;;;;;;7.15;4.10;;;21.20;77.80;;;;;;5013678;28;20061;-60
2022/05/22 12:15:43;;;;;;;8.57;3.78;;;20.80;78.40;;;;;;5014789;28;20026;-58
2022/05/22 12:18:19;;;;;;;7.38;3.88;;;20.70;79.00;;;;;;5014912;28;20512;-59
2022/05/22 12:21:03;;;;;;;7.65;3.83;;;20.90;79.00;;;;;;4996573;28;20041;-58
2022/05/22 12:23:44;;;;;;;9.00;4.32;;;21.40;77.90;;;;;;5014075;28;20032;-57
2022/05/22 12:26:13;;;;;;;7.30;3.50;;;21.30;77.50;;;;;;5013812;28;20115;-57
2022/05/22 12:29:06;;;;;;;7.72;4.43;;;20.90;79.70;;;;;;5013241;28;20061;-57
2022/05/22 12:31:53;;;;;;;8.02;3.95;;;20.50;80.30;;;;;;5013559;28;20033;-59
2022/05/22 12:34:52;;;;;;;8.60;4.05;;;20.00;82.20;;;;;;5014008;28;20115;-56
2022/05/22 12:37:37;;;;;;;8.35;3.80;;;20.10;82.00;;;;;;5012124;28;20018;-57
2022/05/22 12:40:13;;;;;;;6.55;4.10;;;20.50;81.50;;;;;;4997195;28;20025;-58
2022/05/22 12:42:44;;;;;;;6.85;4.18;;;20.80;80.80;;;;;;5018771;28;20056;-55
2022/05/22 12:45:10;;;;;;;7.45;3.92;;;21.30;79.80;;;;;;5018547;28;20026;-56
2022/05/22 12:47:48;;;;;;;7.32;3.50;;;21.70;78.50;;;;;;5013703;28;20037;-58
2022/05/22 12:50:33;;;;;;;9.30;3.63;;;22.00;78.20;;;;;;5013267;28;20077;-58
2022/05/22 12:52:59;;;;;;;6.32;3.95;;;22.00;76.90;;;;;;5013865;28;20034;-59
2022/05/22 12:55:34;;;;;;;9.32;4.65;;;21.80;77.60;;;;;;5013047;28;20294;-59
2022/05/22 12:58:06;;;;;;;10.75;4.20;;;21.80;77.80;;;;;;5013070;28;20121;-60
2022/05/22 13:00:47;;;;;;;10.73;4.78;;;21.30;77.60;;;;;;5011139;28;20026;-59
2022/05/22 13:03:19;;;;;;;8.05;4.22;;;21.10;78.60;;;;;;5012885;28;20026;-58
2022/05/22 13:06:07;;;;;;;8.80;4.22;;;21.00;78.90;;;;;;5013056;28;20030;-55
2022/05/22 13:08:44;;;;;;;8.00;3.70;;;20.80;79.30;;;;;;5013027;28;20026;-57
2022/05/22 13:11:16;;;;;;;9.23;4.60;;;20.60;79.10;;;;;;5012543;28;20061;-58
2022/05/22 13:13:52;;;;;;;7.03;4.22;;;20.50;80.30;;;;;;5012860;28;20072;-56
2022/05/22 13:16:30;;;;;;;6.97;3.58;;;20.90;79.60;;;;;;5012585;28;20037;-62
2022/05/22 13:18:59;;;;;;;7.10;4.45;;;21.00;77.80;;;;;;5012782;28;20030;-58
2022/05/22 13:21:35;;;;;;;7.72;4.10;;;20.90;77.90;;;;;;5012627;28;20358;-56